Time;durP1;ratioP1;P1;durP2;ratioP2;P2;SDS_P1;SDS_P2;PMS_P1;PMS_P2;Temp;Humidity;BMP_temperature;BMP_pressure;BME280_temperature;BME280_humidity;BME280_pressure;Samples;Min_cycle;Max_cycle;Signal;HPM_P1;HPM_P2
2023/11/28 00:00:25;;;;;;;1.40;1.15;;;;;;;4.70;100.00;99665.94;4973067;28;20430;-90
2023/11/28 00:02:50;;;;;;;1.42;1.15;;;;;;;4.74;100.00;99665.81;4972662;28;20573;-89
2023/11/28 00:05:15;;;;;;;3.25;1.40;;;;;;;4.72;100.00;99671.81;4972576;28;20409;-90
2023/11/28 00:07:41;;;;;;;3.33;1.25;;;;;;;4.86;100.00;99672.94;4972719;28;20465;-90
2023/11/28 00:10:08;;;;;;;3.80;1.20;;;;;;;4.78;100.00;99675.00;4972645;28;20386;-90
2023/11/28 00:12:33;;;;;;;2.95;1.40;;;;;;;4.86;100.00;99686.53;4972903;28;20026;-90
2023/11/28 00:14:59;;;;;;;4.22;1.38;;;;;;;4.87;100.00;99682.25;4972713;28;20085;-90
2023/11/28 00:17:24;;;;;;;2.05;1.40;;;;;;;4.89;100.00;99685.56;4975040;28;20093;-90
2023/11/28 00:19:49;;;;;;;1.23;1.13;;;;;;;4.76;100.00;99684.47;4976880;28;20019;-90
2023/11/28 00:22:15;;;;;;;1.27;1.17;;;;;;;4.74;100.00;99691.38;4976115;28;20161;-90
2023/11/28 00:24:40;;;;;;;6.10;1.67;;;;;;;4.64;100.00;99690.97;4975966;28;20030;-90
2023/11/28 00:27:05;;;;;;;2.67;1.55;;;;;;;4.72;100.00;99692.25;4974986;28;20027;-90
2023/11/28 00:29:31;;;;;;;3.60;1.95;;;;;;;4.67;100.00;99693.38;4976064;28;20038;-90
2023/11/28 00:31:56;;;;;;;2.72;1.77;;;;;;;4.75;100.00;99704.06;4974946;28;20023;-90
2023/11/28 00:34:22;;;;;;;1.73;1.50;;;;;;;4.66;100.00;99705.34;4976445;28;20026;-90
2023/11/28 00:36:48;;;;;;;2.90;1.65;;;;;;;4.71;100.00;99697.47;4975855;28;20088;-90
2023/11/28 00:39:13;;;;;;;2.67;1.50;;;;;;;4.87;100.00;99705.25;4976033;28;20509;-90
2023/11/28 00:41:39;;;;;;;3.20;1.85;;;;;;;4.80;100.00;99711.53;4975908;28;20366;-90
2023/11/28 00:44:05;;;;;;;2.42;1.60;;;;;;;4.83;100.00;99711.41;4975781;28;20114;-90
2023/11/28 00:46:31;;;;;;;3.13;2.05;;;;;;;4.86;100.00;99721.50;4975796;28;20019;-90
2023/11/28 00:48:56;;;;;;;3.15;1.85;;;;;;;4.89;100.00;99721.34;4976049;28;20026;-90
2023/11/28 00:51:22;;;;;;;1.92;1.73;;;;;;;4.84;100.00;99723.28;4990734;28;20385;-90
2023/11/28 00:53:47;;;;;;;4.93;2.00;;;;;;;4.80;100.00;99716.66;4975729;28;20054;-90
2023/11/28 00:56:19;;;;;;;4.90;1.80;;;;;;;4.85;100.00;99732.63;4975542;28;20465;-90
2023/11/28 00:58:46;;;;;;;4.25;2.50;;;;;;;4.91;100.00;99730.63;4974416;28;20018;-89
2023/11/28 01:01:12;;;;;;;2.97;1.50;;;;;;;4.88;100.00;99727.38;4974316;28;20026;-90
2023/11/28 01:03:38;;;;;;;2.30;1.40;;;;;;;4.96;100.00;99737.25;4990405;28;20122;-90
2023/11/28 01:06:05;;;;;;;2.90;1.50;;;;;;;4.97;100.00;99739.72;4975484;28;20018;-90
2023/11/28 01:08:30;;;;;;;3.45;1.83;;;;;;;4.94;100.00;99733.03;4975381;28;20528;-90
2023/11/28 01:10:55;;;;;;;2.33;1.70;;;;;;;4.94;100.00;99738.13;4975491;28;20058;-90
2023/11/28 01:13:21;;;;;;;1.73;1.60;;;;;;;5.01;100.00;99741.25;4975400;28;20445;-90
2023/11/28 01:15:46;;;;;;;4.25;1.85;;;;;;;5.01;100.00;99745.53;4975388;28;20066;-90
2023/11/28 01:18:12;;;;;;;2.00;1.50;;;;;;;4.96;100.00;99748.31;4975344;28;20111;-90
2023/11/28 01:20:37;;;;;;;2.05;1.30;;;;;;;4.99;100.00;99745.59;4975177;28;20480;-90
2023/11/28 01:23:02;;;;;;;1.60;1.42;;;;;;;5.04;100.00;99750.50;4974861;28;20386;-90
2023/11/28 01:25:28;;;;;;;3.00;1.50;;;;;;;4.99;100.00;99752.47;4975203;28;20023;-90
2023/11/28 01:27:54;;;;;;;1.77;1.45;;;;;;;5.08;100.00;99762.28;4973864;28;20027;-90
2023/11/28 01:30:19;;;;;;;2.05;1.40;;;;;;;5.13;100.00;99771.38;4975459;28;20110;-90
2023/11/28 01:32:45;;;;;;;1.83;1.40;;;;;;;5.19;100.00;99769.44;4974954;28;20113;-90
2023/11/28 01:35:10;;;;;;;3.45;1.50;;;;;;;5.12;100.00;99774.84;4974755;28;20109;-90
2023/11/28 01:37:36;;;;;;;1.45;1.35;;;;;;;5.12;100.00;99777.41;4974692;28;20158;-90
2023/11/28 01:40:02;;;;;;;1.75;1.27;;;;;;;5.12;100.00;99779.97;4974889;28;20031;-90
2023/11/28 01:42:28;;;;;;;2.67;1.55;;;;;;;5.29;100.00;99786.03;4974973;28;20466;-90
2023/11/28 01:44:53;;;;;;;1.35;1.15;;;;;;;5.17;100.00;99791.72;4974659;28;20060;-90
2023/11/28 01:47:19;;;;;;;2.45;1.42;;;;;;;5.17;100.00;99794.25;4974758;28;20027;-90
2023/11/28 01:49:45;;;;;;;1.55;1.40;;;;;;;5.23;100.00;99799.94;4974629;28;20386;-90
2023/11/28 01:52:11;;;;;;;2.08;1.10;;;;;;;5.34;100.00;99809.66;4974730;28;20042;-90
2023/11/28 01:54:38;;;;;;;3.50;1.67;;;;;;;5.29;100.00;99812.47;4974565;28;20019;-90
2023/11/28 01:57:03;;;;;;;1.58;1.25;;;;;;;5.31;100.00;99810.63;4974739;28;20117;-91
2023/11/28 01:59:31;;;;;;;2.03;1.52;;;;;;;5.29;100.00;99812.47;4974599;28;20110;-90
2023/11/28 02:01:57;;;;;;;1.45;1.30;;;;;;;5.28;100.00;99815.09;4973050;28;20500;-90
2023/11/28 02:04:23;;;;;;;2.25;1.35;;;;;;;5.37;100.00;99809.56;4974322;28;20035;-90
2023/11/28 02:06:49;;;;;;;1.33;1.10;;;;;;;5.27;100.00;99806.59;4974258;28;20102;-90
2023/11/28 02:09:15;;;;;;;1.73;1.00;;;;;;;5.34;100.00;99809.66;4974183;28;20064;-90
2023/11/28 02:11:41;;;;;;;2.55;1.40;;;;;;;5.37;100.00;99812.09;4974409;28;20470;-90
2023/11/28 02:14:06;;;;;;;2.30;1.35;;;;;;;5.34;100.00;99819.91;4974500;28;20123;-90
2023/11/28 02:16:31;;;;;;;3.13;1.33;;;;;;;5.34;100.00;99819.91;4973075;28;20051;-90
2023/11/28 02:18:57;;;;;;;2.58;1.73;;;;;;;5.31;100.00;99820.06;4974563;28;20520;-90
2023/11/28 02:21:22;;;;;;;6.57;2.17;;;;;;;5.30;100.00;99820.97;4988977;28;20057;-90
2023/11/28 02:23:48;;;;;;;5.53;1.92;;;;;;;5.29;100.00;99822.69;4988649;28;20039;-90
2023/11/28 02:26:20;;;;;;;1.88;1.50;;;;;;;5.26;100.00;99827.09;4974068;28;20035;-90
2023/11/28 02:28:46;;;;;;;2.53;1.38;;;;;;;5.26;100.00;99827.09;4973959;28;20540;-90
2023/11/28 02:31:12;;;;;;;2.15;1.50;;;;;;;5.26;100.00;99827.09;4973782;28;20109;-90
2023/11/28 02:33:37;;;;;;;3.80;1.60;;;;;;;5.22;100.00;99831.56;4972382;28;20039;-90
2023/11/28 02:36:03;;;;;;;2.47;1.38;;;;;;;5.30;100.00;99820.97;4973977;28;20038;-90
2023/11/28 02:38:28;;;;;;;1.48;1.38;;;;;;;5.41;100.00;99821.28;4973823;28;20019;-90
2023/11/28 02:40:54;;;;;;;1.88;1.27;;;;;;;5.38;100.00;99829.09;4973470;28;20038;-90
2023/11/28 02:43:19;;;;;;;1.75;1.30;;;;;;;5.30;100.00;99833.75;4973579;28;20066;-91
2023/11/28 02:45:45;;;;;;;1.98;1.70;;;;;;;5.26;100.00;99830.50;4973670;28;20034;-90
2023/11/28 02:48:10;;;;;;;3.42;1.55;;;;;;;5.24;100.00;99834.03;4972205;28;20034;-90
2023/11/28 02:50:37;;;;;;;4.80;1.38;;;;;;;5.26;100.00;99837.34;4972465;28;20029;-90
2023/11/28 02:53:03;;;;;;;1.33;1.23;;;;;;;5.33;100.00;99841.28;4973645;28;20030;-90
2023/11/28 02:55:28;;;;;;;1.90;1.60;;;;;;;5.39;100.00;99843.59;4973573;28;20516;-90
2023/11/28 02:57:54;;;;;;;2.95;1.65;;;;;;;5.27;100.00;99839.03;4971988;28;20085;-90
2023/11/28 03:00:19;;;;;;;1.85;1.30;;;;;;;5.32;100.00;99845.59;4973315;28;20023;-90
2023/11/28 03:02:44;;;;;;;1.83;1.63;;;;;;;5.31;100.00;99845.63;4972179;28;20030;-90
2023/11/28 03:05:10;;;;;;;4.57;1.52;;;;;;;5.30;100.00;99844.81;4973097;28;20035;-90
2023/11/28 03:07:35;;;;;;;2.55;1.80;;;;;;;5.21;100.00;99844.41;4972186;28;20473;-90
2023/11/28 03:10:01;;;;;;;4.00;1.85;;;;;;;5.30;100.00;99844.00;4973374;28;20051;-90
2023/11/28 03:12:26;;;;;;;4.50;1.75;;;;;;;5.30;100.00;99844.00;4973562;28;20512;-90
2023/11/28 03:14:51;;;;;;;1.88;1.50;;;;;;;5.34;100.00;99845.50;4971941;28;20482;-90
2023/11/28 03:17:17;;;;;;;1.92;1.70;;;;;;;5.45;100.00;99848.41;4971711;28;20109;-90
2023/11/28 03:19:42;;;;;;;1.73;1.58;;;;;;;5.42;100.00;99842.63;4973291;28;20085;-90
2023/11/28 03:22:08;;;;;;;4.20;1.60;;;;;;;5.41;100.00;99846.88;4973173;28;20390;-90
2023/11/28 03:24:33;;;;;;;2.47;1.77;;;;;;;5.47;100.00;99851.72;4973175;28;20030;-89
2023/11/28 03:26:59;;;;;;;2.15;1.90;;;;;;;5.41;100.00;99849.44;4973095;28;20118;-90
2023/11/28 03:29:24;;;;;;;2.83;2.28;;;;;;;5.30;100.00;99844.00;4973035;28;20490;-90
2023/11/28 03:31:50;;;;;;;3.50;2.42;;;;;;;5.40;100.00;99835.00;4972851;28;20474;-90
2023/11/28 03:34:15;;;;;;;4.93;3.20;;;;;;;5.44;100.00;99840.78;4972861;28;20050;-90
2023/11/28 03:36:40;;;;;;;3.35;2.55;;;;;;;5.47;100.00;99844.06;4972796;28;20114;-90
2023/11/28 03:39:06;;;;;;;3.30;2.75;;;;;;;5.50;100.00;99846.47;4971797;28;20031;-90
2023/11/28 03:41:32;;;;;;;3.58;2.60;;;;;;;5.44;100.00;99846.75;4972925;28;20023;-90
2023/11/28 03:43:58;;;;;;;3.40;3.10;;;;;;;5.48;100.00;99852.56;4972751;28;20508;-90
2023/11/28 03:46:24;;;;;;;4.78;3.15;;;;;;;5.41;100.00;99867.34;4972811;28;20496;-90
2023/11/28 03:48:49;;;;;;;4.07;3.20;;;;;;;5.41;100.00;99856.28;4973072;28;20022;-90
2023/11/28 03:51:15;;;;;;;3.28;2.75;;;;;;;5.38;100.00;99867.50;4973604;28;20038;-90
2023/11/28 03:53:40;;;;;;;3.30;3.00;;;;;;;5.36;100.00;99874.41;4975615;28;20504;-89
2023/11/28 03:56:07;;;;;;;3.38;2.95;;;;;;;5.44;100.00;99871.50;4977062;28;20026;-90
2023/11/28 03:58:33;;;;;;;4.55;3.05;;;;;;;5.38;100.00;99872.63;4976751;28;20066;-90
2023/11/28 04:00:58;;;;;;;5.90;4.53;;;;;;;5.26;100.00;99875.72;4976750;28;20110;-90
2023/11/28 04:03:24;;;;;;;4.03;3.53;;;;;;;5.26;100.00;99875.72;4976973;28;20113;-90
2023/11/28 04:05:49;;;;;;;6.57;3.25;;;;;;;5.43;100.00;99868.13;4976839;28;20034;-90
2023/11/28 04:08:15;;;;;;;5.15;3.40;;;;;;;5.45;100.00;99868.88;4976454;28;20015;-90
2023/11/28 04:10:41;;;;;;;5.95;3.42;;;;;;;5.33;100.00;99866.88;4976855;28;20074;-90
2023/11/28 04:13:06;;;;;;;13.85;3.70;;;;;;;5.33;100.00;99865.13;4976658;28;20312;-90
2023/11/28 04:15:33;;;;;;;5.30;3.47;;;;;;;5.34;100.00;99859.13;4976426;28;20031;-90
2023/11/28 04:17:59;;;;;;;4.10;3.00;;;;;;;5.31;100.00;99851.59;4976338;28;20081;-90
2023/11/28 04:20:24;;;;;;;4.10;3.33;;;;;;;5.25;100.00;99856.16;4976320;28;20034;-90
2023/11/28 04:22:50;;;;;;;4.32;3.10;;;;;;;5.26;100.00;99865.50;4976232;28;20050;-90
2023/11/28 04:25:15;;;;;;;5.57;3.67;;;;;;;5.15;100.00;99866.81;4976283;28;20035;-90
2023/11/28 04:27:40;;;;;;;5.25;3.50;;;;;;;5.11;100.00;99870.38;4975447;28;20034;-90
2023/11/28 04:30:06;;;;;;;4.20;3.70;;;;;;;5.05;100.00;99875.78;4974909;28;20026;-90
2023/11/28 04:32:32;;;;;;;6.88;3.75;;;;;;;5.01;100.00;99869.13;4976210;28;20023;-90
2023/11/28 04:34:57;;;;;;;5.55;3.70;;;;;;;4.97;100.00;99870.16;4976310;28;20026;-90
2023/11/28 04:37:22;;;;;;;6.72;3.58;;;;;;;4.95;100.00;99879.66;4976424;28;20019;-90
2023/11/28 04:39:50;;;;;;;6.80;3.65;;;;;;;4.96;100.00;99875.34;4976154;28;20026;-90
2023/11/28 04:42:15;;;;;;;5.82;3.90;;;;;;;4.93;100.00;99884.81;4976083;28;20054;-90
2023/11/28 04:44:40;;;;;;;4.70;3.97;;;;;;;4.84;100.00;99884.38;4975892;28;20480;-90
2023/11/28 04:47:06;;;;;;;6.60;4.75;;;;;;;4.78;100.00;99882.06;4975947;28;20640;-90
2023/11/28 04:49:31;;;;;;;5.03;4.10;;;;;;;4.82;100.00;99884.44;4975896;28;20339;-90
2023/11/28 04:51:56;;;;;;;8.05;4.05;;;;;;;4.96;100.00;99891.53;4975901;28;20026;-90
2023/11/28 04:54:22;;;;;;;8.25;4.30;;;;;;;4.82;100.00;99898.94;4974552;28;20041;-89
2023/11/28 04:56:47;;;;;;;8.05;4.22;;;;;;;4.90;100.00;99907.97;4974258;28;20011;-90
2023/11/28 04:59:13;;;;;;;6.22;4.28;;;;;;;4.95;100.00;99902.66;4975818;28;20184;-90
2023/11/28 05:01:43;;;;;;;5.25;4.00;;;;;;;4.92;100.00;99907.88;4975815;28;20397;-90
2023/11/28 05:04:09;;;;;;;6.63;4.22;;;;;;;4.92;100.00;99905.31;4975379;28;20050;-90
2023/11/28 05:06:34;;;;;;;6.28;4.25;;;;;;;4.92;100.00;99900.22;4975608;28;20389;-90
2023/11/28 05:09:00;;;;;;;7.15;4.15;;;;;;;4.98;100.00;99907.63;4975462;28;20061;-90
2023/11/28 05:11:25;;;;;;;6.00;4.30;;;;;;;5.05;100.00;99916.72;4975493;28;20035;-90
2023/11/28 05:13:50;;;;;;;6.85;4.78;;;;;;;5.10;100.00;99924.19;4975283;28;20025;-90
2023/11/28 05:16:15;;;;;;;7.38;4.40;;;;;;;5.04;100.00;99925.25;4974097;28;20105;-90
2023/11/28 05:18:41;;;;;;;5.78;4.78;;;;;;;5.04;100.00;99917.59;4975423;28;20019;-89
2023/11/28 05:21:08;;;;;;;8.90;4.88;;;;;;;5.12;100.00;99928.34;4975495;28;20023;-90
2023/11/28 05:23:34;;;;;;;8.07;4.53;;;;;;;5.07;100.00;99930.25;4973750;28;20035;-89
2023/11/28 05:25:59;;;;;;;6.07;5.30;;;;;;;5.15;100.00;99928.19;4975260;28;20069;-90
2023/11/28 05:28:24;;;;;;;7.40;5.28;;;;;;;5.06;100.00;99920.91;4990194;28;20093;-90
2023/11/28 05:30:50;;;;;;;5.80;4.93;;;;;;;5.04;100.00;99925.25;4975210;28;20523;-90
2023/11/28 05:33:15;;;;;;;7.70;5.35;;;;;;;5.13;100.00;99924.88;4975183;28;20078;-90
2023/11/28 05:35:40;;;;;;;8.63;5.20;;;;;;;5.13;100.00;99929.16;4974891;28;20163;-90
2023/11/28 05:38:07;;;;;;;7.43;5.20;;;;;;;5.05;100.00;99937.16;4975054;28;20030;-90
2023/11/28 05:40:32;;;;;;;5.10;4.57;;;;;;;5.06;100.00;99943.94;4989910;28;20505;-88
2023/11/28 05:42:58;;;;;;;5.75;4.95;;;;;;;5.09;100.00;99928.44;4974833;28;20105;-90
2023/11/28 05:45:23;;;;;;;7.25;6.10;;;;;;;5.15;100.00;99933.31;4973861;28;20089;-88
2023/11/28 05:47:51;;;;;;;8.40;6.28;;;;;;;5.09;100.00;99933.56;4974921;28;20019;-89
2023/11/28 05:50:16;;;;;;;9.15;6.47;;;;;;;5.19;100.00;99933.16;4973516;28;20485;-90
2023/11/28 05:52:42;;;;;;;6.63;5.80;;;;;;;5.12;100.00;99938.56;4973518;28;20062;-88
2023/11/28 05:55:07;;;;;;;10.48;6.75;;;;;;;5.12;100.00;99951.38;4974729;28;20042;-91
2023/11/28 05:57:32;;;;;;;10.48;7.03;;;;;;;5.00;100.00;99953.59;4974506;28;20110;-90
2023/11/28 05:59:58;;;;;;;9.85;7.03;;;;;;;5.03;100.00;99949.19;4989533;28;20086;-90
2023/11/28 06:02:23;;;;;;;10.32;6.38;;;;;;;5.08;100.00;99957.50;4973445;28;20030;-90
2023/11/28 06:04:49;;;;;;;8.90;6.80;;;;;;;5.10;100.00;99955.72;4974513;28;20030;-89
2023/11/28 06:07:14;;;;;;;8.18;6.57;;;;;;;5.17;100.00;99958.00;4974647;28;20030;-89
2023/11/28 06:09:39;;;;;;;9.80;6.68;;;;;;;5.15;100.00;99953.78;4974390;28;20023;-90
2023/11/28 06:12:06;;;;;;;7.47;6.68;;;;;;;5.15;100.00;99955.50;4974052;28;20027;-90
2023/11/28 06:14:32;;;;;;;15.00;7.22;;;;;;;5.15;100.00;99958.06;4973494;28;20533;-90
2023/11/28 06:16:59;;;;;;;11.15;7.50;;;;;;;5.15;100.00;99958.91;4974292;28;20106;-90
2023/11/28 06:19:25;;;;;;;11.30;6.82;;;;;;;5.26;100.00;99955.88;4974168;28;20093;-90
2023/11/28 06:21:50;;;;;;;8.25;6.50;;;;;;;5.21;100.00;99962.09;4972801;28;20485;-90
2023/11/28 06:24:15;;;;;;;12.40;7.22;;;;;;;5.17;100.00;99968.22;4973880;28;20034;-90
2023/11/28 06:26:41;;;;;;;12.45;7.50;;;;;;;5.12;100.00;99961.59;4973979;28;20033;-90
2023/11/28 06:29:06;;;;;;;8.13;6.40;;;;;;;5.12;100.00;99965.84;4974017;28;20027;-90
2023/11/28 06:31:32;;;;;;;10.88;7.28;;;;;;;5.10;100.00;99970.22;4973894;28;20062;-89
2023/11/28 06:33:57;;;;;;;10.32;7.05;;;;;;;5.07;100.00;99962.66;4972448;28;20046;-90
2023/11/28 06:36:23;;;;;;;12.38;7.63;;;;;;;5.10;100.00;99970.22;4973808;28;20027;-90
2023/11/28 06:38:48;;;;;;;10.38;7.57;;;;;;;5.09;100.00;99969.38;4973995;28;20027;-90
2023/11/28 06:41:14;;;;;;;9.07;6.63;;;;;;;5.11;100.00;99972.69;4973832;28;20027;-90
2023/11/28 06:43:39;;;;;;;8.10;6.85;;;;;;;5.08;100.00;99977.97;4972152;28;20033;-90
2023/11/28 06:46:05;;;;;;;8.73;6.82;;;;;;;5.11;100.00;99984.66;4973753;28;20031;-90
2023/11/28 06:48:31;;;;;;;11.15;7.78;;;;;;;5.16;100.00;99990.41;4973548;28;20026;-90
2023/11/28 06:50:57;;;;;;;9.07;7.38;;;;;;;5.04;100.00;99986.66;4973615;28;20034;-90
2023/11/28 06:53:23;;;;;;;9.98;7.85;;;;;;;5.07;100.00;99983.13;4988312;28;20030;-90
2023/11/28 06:55:48;;;;;;;9.85;7.38;;;;;;;5.15;100.00;99989.59;4973505;28;20022;-90
2023/11/28 06:58:13;;;;;;;10.27;7.25;;;;;;;5.12;100.00;99996.53;4973473;28;20051;-89
2023/11/28 07:00:39;;;;;;;14.63;7.60;;;;;;;5.21;100.00;99998.72;4972986;28;20073;-89
2023/11/28 07:03:05;;;;;;;9.77;7.25;;;;;;;5.33;100.00;100002.50;4972367;28;20061;-89
2023/11/28 07:05:31;;;;;;;12.63;7.30;;;;;;;5.22;100.00;100004.66;4972042;28;20101;-94
2023/11/28 07:07:56;;;;;;;10.43;7.90;;;;;;;5.12;100.00;100015.31;4973217;28;20461;-88
2023/11/28 07:10:22;;;;;;;10.18;7.70;;;;;;;5.14;100.00;100013.53;4972207;28;20038;-88
2023/11/28 07:12:47;;;;;;;14.80;8.45;;;;;;;5.18;100.00;100014.22;4972705;28;20037;-88
2023/11/28 07:15:13;;;;;;;12.57;7.85;;;;;;;5.30;100.00;100010.31;4972590;28;20045;-89
2023/11/28 07:17:40;;;;;;;12.77;8.07;;;;;;;5.24;100.00;100013.97;4972651;28;20038;-88
2023/11/28 07:20:06;;;;;;;11.57;8.05;;;;;;;5.27;100.00;100013.84;4971421;28;20048;-89
2023/11/28 07:22:32;;;;;;;10.68;8.32;;;;;;;5.24;100.00;100019.09;4972358;28;20035;-89
2023/11/28 07:24:58;;;;;;;11.43;8.15;;;;;;;5.26;100.00;100024.13;4971682;28;20045;-89
2023/11/28 07:27:23;;;;;;;15.00;9.05;;;;;;;5.20;100.00;100025.22;4972958;28;20469;-89
2023/11/28 07:29:49;;;;;;;13.32;8.90;;;;;;;5.22;100.00;100023.44;4973465;28;20034;-89
2023/11/28 07:32:14;;;;;;;13.57;7.68;;;;;;;5.16;100.00;100023.69;4973022;28;20057;-89
2023/11/28 07:34:39;;;;;;;12.80;7.40;;;;;;;5.24;100.00;100028.47;4972991;28;20481;-89
2023/11/28 07:37:05;;;;;;;15.80;8.20;;;;;;;5.20;100.00;100034.63;4972916;28;20034;-89
2023/11/28 07:39:30;;;;;;;13.98;8.15;;;;;;;5.12;100.00;100030.66;4972926;28;20019;-89
2023/11/28 07:41:55;;;;;;;9.60;7.68;;;;;;;5.19;100.00;100038.88;4973041;28;20045;-89
2023/11/28 07:44:21;;;;;;;12.25;7.65;;;;;;;5.13;100.00;100045.09;4972859;28;20031;-89
2023/11/28 07:46:46;;;;;;;13.77;8.40;;;;;;;5.14;100.00;100046.78;4972823;28;20038;-89
2023/11/28 07:49:12;;;;;;;13.50;7.75;;;;;;;5.16;100.00;100051.81;4973010;28;20034;-88
2023/11/28 07:51:37;;;;;;;13.45;8.35;;;;;;;5.26;100.00;100047.16;4972795;28;20037;-89
2023/11/28 07:54:03;;;;;;;10.25;8.45;;;;;;;5.26;100.00;100053.09;4971374;28;20058;-88
2023/11/28 07:56:29;;;;;;;13.07;9.00;;;;;;;5.33;100.00;100058.78;4972573;28;20033;-89
2023/11/28 07:58:55;;;;;;;11.60;7.72;;;;;;;5.23;100.00;100060.06;4972835;28;20022;-88
2023/11/28 08:01:20;;;;;;;11.75;7.68;;;;;;;5.35;100.00;100057.00;4971690;28;20023;-89
2023/11/28 08:03:46;;;;;;;11.25;6.88;;;;;;;5.27;100.00;100069.31;4972618;28;20381;-88
2023/11/28 08:06:14;;;;;;;10.68;8.02;;;;;;;5.30;100.00;100075.09;4971241;28;20074;-89
2023/11/28 08:08:39;;;;;;;12.45;7.82;;;;;;;5.30;100.00;100074.28;4972722;28;20034;-89
2023/11/28 08:11:05;;;;;;;8.93;7.00;;;;;;;5.29;100.00;100077.72;4972620;28;20027;-89
2023/11/28 08:13:31;;;;;;;12.95;7.57;;;;;;;5.21;100.00;100074.66;4972732;28;20117;-89
2023/11/28 08:15:58;;;;;;;10.07;7.22;;;;;;;5.38;100.00;100071.41;4972660;28;20053;-88
2023/11/28 08:18:25;;;;;;;16.67;9.25;;;;;;;5.38;100.00;100082.47;4972887;28;20105;-89
2023/11/28 08:20:50;;;;;;;14.43;8.75;;;;;;;5.43;100.00;100080.53;4972836;28;20390;-89
2023/11/28 08:23:16;;;;;;;18.00;9.25;;;;;;;5.38;100.00;100090.13;4972762;28;20448;-88
2023/11/28 08:25:41;;;;;;;12.93;7.65;;;;;;;5.42;100.00;100089.13;4973219;28;20026;-88
2023/11/28 08:28:06;;;;;;;11.88;8.13;;;;;;;5.46;100.00;100095.78;4972818;28;20050;-89
2023/11/28 08:30:32;;;;;;;13.35;8.20;;;;;;;5.45;100.00;100088.16;4972428;28;20051;-89
2023/11/28 08:32:57;;;;;;;11.43;7.57;;;;;;;5.42;100.00;100081.44;4972555;28;20027;-88
2023/11/28 08:35:23;;;;;;;11.85;7.60;;;;;;;5.47;100.00;100094.06;4972504;28;20031;-88
2023/11/28 08:37:48;;;;;;;11.50;8.35;;;;;;;5.38;100.00;100087.59;4973905;28;20038;-89
2023/11/28 08:40:14;;;;;;;14.05;8.18;;;;;;;5.47;100.00;100089.75;4975802;28;20027;-89
2023/11/28 08:42:39;;;;;;;12.88;8.98;;;;;;;5.44;100.00;100089.91;4975927;28;20069;-89
2023/11/28 08:45:05;;;;;;;10.07;7.15;;;;;;;5.47;100.00;100092.31;4975767;28;20031;-89
2023/11/28 08:47:30;;;;;;;12.90;7.43;;;;;;;5.47;100.00;100097.44;4975921;28;20161;-89
2023/11/28 08:49:59;;;;;;;16.65;8.60;;;;;;;5.53;100.00;100109.13;4974679;28;20477;-89
2023/11/28 08:52:25;;;;;;;13.77;8.13;;;;;;;5.49;100.00;100095.66;4975837;28;20027;-89
2023/11/28 08:54:51;;;;;;;12.35;9.02;;;;;;;5.55;100.00;100103.06;4975592;28;20580;-89
2023/11/28 08:57:18;;;;;;;10.25;7.90;;;;;;;5.56;100.00;100107.31;4975736;28;20037;-88
2023/11/28 08:59:44;;;;;;;12.13;8.50;;;;;;;5.55;100.00;100100.50;4975605;28;20305;-89
2023/11/28 09:02:10;;;;;;;12.95;7.55;;;;;;;5.64;100.00;100103.59;4975806;28;20190;-89
2023/11/28 09:04:35;;;;;;;14.00;8.00;;;;;;;5.65;100.00;100100.13;4976317;28;20027;-89
2023/11/28 09:07:00;;;;;;;12.02;7.80;;;;;;;5.71;100.00;100099.88;4974340;28;20077;-89
2023/11/28 09:09:26;;;;;;;13.82;7.38;;;;;;;5.70;100.00;100108.44;4975819;28;20400;-88
2023/11/28 09:11:51;;;;;;;16.08;8.60;;;;;;;5.72;100.00;100106.66;4976815;28;20114;-89
2023/11/28 09:14:17;;;;;;;10.32;7.15;;;;;;;5.80;100.00;100104.56;4976481;28;20023;-89
2023/11/28 09:16:43;;;;;;;9.38;7.40;;;;;;;5.83;100.00;100104.47;4975301;28;20034;-89
2023/11/28 09:19:09;;;;;;;11.10;8.15;;;;;;;5.80;100.00;100109.69;4975330;28;20023;-89
2023/11/28 09:21:34;;;;;;;9.75;7.22;;;;;;;5.83;100.00;100107.03;4975132;28;20030;-89
2023/11/28 09:23:59;;;;;;;9.43;7.03;;;;;;;5.93;100.00;100100.59;4975141;28;20035;-89
2023/11/28 09:26:26;;;;;;;17.23;8.30;;;;;;;5.99;100.00;100104.66;4973837;28;20481;-90
2023/11/28 09:28:52;;;;;;;17.70;8.45;;;;;;;5.93;100.00;100105.72;4975038;28;20022;-90
2023/11/28 09:31:19;;;;;;;12.48;7.80;;;;;;;6.07;100.00;100101.75;4975106;28;20066;-89
2023/11/28 09:33:44;;;;;;;11.77;8.25;;;;;;;6.18;100.00;100108.06;4973722;28;20401;-88
2023/11/28 09:36:10;;;;;;;14.27;8.48;;;;;;;6.20;100.00;100103.69;4973737;28;20035;-87
2023/11/28 09:38:35;;;;;;;15.88;9.40;;;;;;;6.28;100.00;100111.03;4975031;28;20452;-88
2023/11/28 09:41:01;;;;;;;15.35;9.80;;;;;;;6.32;100.00;100116.88;4975189;28;20027;-87
2023/11/28 09:43:27;;;;;;;13.95;9.70;;;;;;;6.38;100.00;100112.28;4974910;28;20018;-87
2023/11/28 09:45:59;;;;;;;12.57;9.70;;;;;;;6.49;100.00;100113.56;4973677;28;20486;-87
2023/11/28 09:48:27;;;;;;;12.63;9.07;;;;;;;6.55;100.00;100114.09;4974506;28;20410;-87
2023/11/28 09:50:54;;;;;;;13.07;8.93;;;;;;;6.60;100.00;100114.69;4974209;28;20073;-87
2023/11/28 09:53:23;;;;;;;15.75;9.20;;;;;;;6.68;100.00;100114.34;4974769;28;20038;-87
2023/11/28 09:55:51;;;;;;;11.77;8.32;;;;;;;6.69;100.00;100117.75;4974763;28;20061;-88
2023/11/28 09:58:20;;;;;;;13.38;8.60;;;;;;;6.69;100.00;100115.19;4974751;28;20031;-87
2023/11/28 10:00:46;;;;;;;15.40;9.48;;;;;;;6.69;100.00;100120.31;4974939;28;20027;-87
2023/11/28 10:03:11;;;;;;;9.75;7.78;;;;;;;6.68;100.00;100124.59;4974658;28;20154;-90
2023/11/28 10:05:37;;;;;;;10.85;7.90;;;;;;;6.68;100.00;100118.66;4974280;28;20461;-87
2023/11/28 10:08:04;;;;;;;12.43;8.82;;;;;;;6.77;100.00;100124.19;4974768;28;20074;-89
2023/11/28 10:10:32;;;;;;;16.88;8.57;;;;;;;6.81;100.00;100117.19;4974609;28;20531;-87
2023/11/28 10:12:58;;;;;;;12.10;8.18;;;;;;;6.83;100.00;100112.81;4974531;28;20466;-87
2023/11/28 10:15:25;;;;;;;9.75;7.32;;;;;;;6.93;100.00;100113.22;4974405;28;20037;-90
2023/11/28 10:17:51;;;;;;;12.05;8.73;;;;;;;6.92;100.00;100116.66;4973211;28;20106;-89
2023/11/28 10:20:17;;;;;;;12.70;8.85;;;;;;;6.92;100.00;100121.78;4974227;28;20089;-89
2023/11/28 10:22:52;;;;;;;13.43;8.43;;;;;;;7.06;100.00;100121.97;4974157;28;20033;-89
2023/11/28 10:25:20;;;;;;;12.73;7.50;;;;;;;7.01;100.00;100114.50;4973870;28;20034;-89
2023/11/28 10:27:47;;;;;;;12.45;7.75;;;;;;;7.08;100.00;100122.75;4974012;28;20023;-89
2023/11/28 10:30:16;;;;;;;18.58;8.15;;;;;;;7.06;100.00;100125.38;4974096;28;20208;-89
2023/11/28 10:32:44;;;;;;;13.57;7.32;;;;;;;7.24;100.00;100121.09;4973930;28;20115;-89
2023/11/28 10:35:10;;;;;;;13.60;9.07;;;;;;;7.36;100.00;100122.22;4974066;28;20027;-89
2023/11/28 10:37:39;;;;;;;11.60;6.40;;;;;;;7.16;100.00;100122.38;4973675;28;20029;-89
2023/11/28 10:40:06;;;;;;;6.55;4.80;;;;;;;7.39;100.00;100123.78;4973888;28;20367;-89
2023/11/28 10:42:32;;;;;;;13.50;4.68;;;;;;;7.48;100.00;100128.47;4973917;28;20023;-89
2023/11/28 10:45:03;;;;;;;7.85;4.72;;;;;;;7.21;100.00;100128.94;4973460;28;20039;-89
2023/11/28 10:47:31;;;;;;;10.02;5.00;;;;;;;7.37;100.00;100125.63;4973670;28;20038;-89
2023/11/28 10:49:57;;;;;;;10.07;4.22;;;;;;;7.49;100.00;100125.03;4972485;28;20067;-89
2023/11/28 10:52:27;;;;;;;8.23;5.10;;;;;;;7.50;100.00;100129.25;4973806;28;20073;-89
2023/11/28 10:54:58;;;;;;;8.68;4.40;;;;;;;7.61;100.00;100129.56;4973686;28;20572;-89
2023/11/28 10:57:28;;;;;;;8.88;4.57;;;;;;;7.58;100.00;100134.81;4973642;28;20031;-89
2023/11/28 11:00:01;;;;;;;7.35;3.95;;;;;;;7.67;100.00;100131.78;4973363;28;20393;-89
2023/11/28 11:02:28;;;;;;;5.65;3.70;;;;;;;7.46;100.00;100120.88;4972567;28;20026;-89
2023/11/28 11:04:54;;;;;;;5.85;4.20;;;;;;;7.57;100.00;100125.47;4973288;28;20058;-89
2023/11/28 11:07:20;;;;;;;8.52;3.60;;;;;;;7.61;100.00;100116.72;4973356;28;20552;-89
2023/11/28 11:09:47;;;;;;;7.20;3.35;;;;;;;7.80;100.00;100116.59;4973243;28;20485;-89
2023/11/28 11:12:14;;;;;;;6.57;3.60;;;;;;;7.84;100.00;100112.13;4973136;28;20023;-89
2023/11/28 11:14:46;;;;;;;10.13;3.85;;;;;;;7.60;100.00;100114.22;4973332;28;20031;-89
2023/11/28 11:17:32;;;;;;;8.65;3.95;;;;;;;7.63;100.00;100102.06;4973099;28;20026;-89
2023/11/28 11:19:59;;;;;;;7.70;3.88;;;;;;;7.62;100.00;100092.66;4973255;28;20027;-89